createdAt,value
2022-12-22T00:00:22.673Z,1004.41
2022-12-22T00:01:22.848Z,1004.38
2022-12-22T00:02:22.764Z,1004.37
2022-12-22T00:03:22.832Z,1004.40
2022-12-22T00:04:22.690Z,1004.38
2022-12-22T00:05:22.614Z,1004.36
2022-12-22T00:06:22.609Z,1004.27
2022-12-22T00:07:22.615Z,1004.29
2022-12-22T00:08:22.587Z,1004.29
2022-12-22T00:09:22.589Z,1004.32
2022-12-22T00:10:22.579Z,1004.28
2022-12-22T00:11:22.541Z,1004.29
2022-12-22T00:12:22.547Z,1004.24
2022-12-22T00:13:22.522Z,1004.22
2022-12-22T00:14:22.512Z,1004.24
2022-12-22T00:15:22.507Z,1004.30
2022-12-22T00:16:22.574Z,1004.30
2022-12-22T00:17:22.509Z,1004.30
2022-12-22T00:18:22.471Z,1004.29
2022-12-22T00:19:22.487Z,1004.25
2022-12-22T00:20:22.459Z,1004.23
2022-12-22T00:21:22.457Z,1004.24
2022-12-22T00:22:31.207Z,1004.25
2022-12-22T00:23:22.426Z,1004.24
2022-12-22T00:24:22.395Z,1004.21
2022-12-22T00:25:22.398Z,1004.19
2022-12-22T00:26:22.379Z,1004.16
2022-12-22T00:27:22.374Z,1004.10
2022-12-22T00:28:22.376Z,1004.09
2022-12-22T00:29:22.373Z,1004.12
2022-12-22T00:30:22.341Z,1004.06
2022-12-22T00:31:22.395Z,1004.05
2022-12-22T00:32:22.317Z,1004.01
2022-12-22T00:33:22.334Z,1004.01
2022-12-22T00:34:22.304Z,1004.05
2022-12-22T00:35:22.312Z,1004.01
2022-12-22T00:36:22.291Z,1004.03
2022-12-22T00:37:22.263Z,1004.00
2022-12-22T00:38:22.271Z,1004.03
2022-12-22T00:39:22.252Z,1003.93
2022-12-22T00:40:22.230Z,1003.99
2022-12-22T00:41:22.217Z,1004.02
2022-12-22T00:42:22.217Z,1004.01
2022-12-22T00:43:22.202Z,1004.00
2022-12-22T00:44:22.206Z,1003.94
2022-12-22T00:45:22.188Z,1004.02
2022-12-22T00:46:22.386Z,1003.97
2022-12-22T00:47:22.159Z,1003.98
2022-12-22T00:48:22.171Z,1003.98
2022-12-22T00:49:22.135Z,1003.93
2022-12-22T00:50:22.130Z,1003.98
2022-12-22T00:51:22.159Z,1003.90
2022-12-22T00:52:22.131Z,1003.87
2022-12-22T00:53:22.098Z,1003.91
2022-12-22T00:54:22.089Z,1003.85
2022-12-22T00:55:22.073Z,1003.85
2022-12-22T00:56:22.071Z,1003.89
2022-12-22T00:57:22.058Z,1003.88
2022-12-22T00:58:22.075Z,1003.89
2022-12-22T00:59:22.036Z,1003.86
2022-12-22T01:00:22.019Z,1003.83
2022-12-22T01:01:22.087Z,1003.76
2022-12-22T01:02:22.199Z,1003.88
2022-12-22T01:03:22.051Z,1003.91
2022-12-22T01:04:21.985Z,1003.89
2022-12-22T01:05:21.983Z,1003.96
2022-12-22T01:06:21.965Z,1003.94
2022-12-22T01:07:21.976Z,1003.98
2022-12-22T01:08:21.943Z,1003.87
2022-12-22T01:09:21.930Z,1003.92
2022-12-22T01:10:21.927Z,1003.83
2022-12-22T01:11:21.907Z,1003.80
2022-12-22T01:12:21.890Z,1003.78
2022-12-22T01:13:21.886Z,1003.81
2022-12-22T01:14:21.985Z,1003.68
2022-12-22T01:15:21.867Z,1003.66
2022-12-22T01:16:21.909Z,1003.67
2022-12-22T01:17:21.871Z,1003.66
2022-12-22T01:18:21.839Z,1003.68
2022-12-22T01:19:21.840Z,1003.68
2022-12-22T01:20:21.828Z,1003.67
2022-12-22T01:21:21.807Z,1003.70
2022-12-22T01:22:21.794Z,1003.68
2022-12-22T01:23:21.806Z,1003.59
2022-12-22T01:24:21.782Z,1003.68
2022-12-22T01:25:21.767Z,1003.58
2022-12-22T01:26:21.763Z,1003.54
2022-12-22T01:27:21.736Z,1003.50
2022-12-22T01:28:21.720Z,1003.47
2022-12-22T01:29:21.737Z,1003.54
2022-12-22T01:30:21.723Z,1003.54
2022-12-22T01:31:21.724Z,1003.56
2022-12-22T01:32:21.680Z,1003.54
2022-12-22T01:33:21.677Z,1003.54
2022-12-22T01:34:21.657Z,1003.54
2022-12-22T01:35:21.663Z,1003.53
2022-12-22T01:36:21.648Z,1003.55
2022-12-22T01:37:21.628Z,1003.47
2022-12-22T01:38:21.625Z,1003.56
2022-12-22T01:39:21.635Z,1003.57
2022-12-22T01:40:21.612Z,1003.56
2022-12-22T01:41:21.590Z,1003.53
2022-12-22T01:42:21.573Z,1003.53
2022-12-22T01:43:21.594Z,1003.52
2022-12-22T01:44:21.560Z,1003.52
2022-12-22T01:45:21.557Z,1003.44
2022-12-22T01:46:21.560Z,1003.46
2022-12-22T01:47:21.541Z,1003.39
2022-12-22T01:48:21.509Z,1003.48
2022-12-22T01:49:21.533Z,1003.43
2022-12-22T01:50:21.494Z,1003.44
2022-12-22T01:51:21.473Z,1003.44
2022-12-22T01:52:21.468Z,1003.40
2022-12-22T01:53:21.474Z,1003.44
2022-12-22T01:54:21.463Z,1003.41
2022-12-22T01:55:21.460Z,1003.34
2022-12-22T01:56:21.444Z,1003.37
2022-12-22T01:57:21.415Z,1003.34
2022-12-22T01:58:21.434Z,1003.26
2022-12-22T01:59:21.467Z,1003.26
2022-12-22T02:00:21.383Z,1003.18
2022-12-22T02:01:21.453Z,1003.20
2022-12-22T02:02:21.506Z,1003.15
2022-12-22T02:03:21.453Z,1003.17
2022-12-22T02:04:21.363Z,1003.19
2022-12-22T02:05:21.340Z,1003.11
2022-12-22T02:06:21.327Z,1003.08
2022-12-22T02:07:21.310Z,1003.09
2022-12-22T02:08:21.308Z,1003.08
2022-12-22T02:09:21.324Z,1003.05
2022-12-22T02:10:21.281Z,1003.05
2022-12-22T02:11:21.304Z,1002.97
2022-12-22T02:12:21.264Z,1003.00
2022-12-22T02:13:21.246Z,1003.00
2022-12-22T02:14:26.150Z,1002.99
2022-12-22T02:15:22.235Z,1002.91
2022-12-22T02:16:21.282Z,1002.90
2022-12-22T02:17:21.200Z,1002.90
2022-12-22T02:18:21.188Z,1002.90
2022-12-22T02:19:21.180Z,1002.95
2022-12-22T02:20:21.204Z,1002.90
2022-12-22T02:21:21.159Z,1002.84
2022-12-22T02:22:21.150Z,1002.86
2022-12-22T02:23:21.141Z,1002.87
2022-12-22T02:24:21.120Z,1002.77
2022-12-22T02:25:21.135Z,1002.76
2022-12-22T02:26:21.113Z,1002.74
2022-12-22T02:27:21.136Z,1002.74
2022-12-22T02:28:21.082Z,1002.71
2022-12-22T02:29:21.079Z,1002.77
2022-12-22T02:30:21.080Z,1002.71
2022-12-22T02:31:21.116Z,1002.66
2022-12-22T02:32:21.051Z,1002.63
2022-12-22T02:33:21.026Z,1002.68
2022-12-22T02:34:21.023Z,1002.70
2022-12-22T02:35:21.012Z,1002.66
2022-12-22T02:36:21.019Z,1002.67
2022-12-22T02:37:20.993Z,1002.69
2022-12-22T02:38:20.969Z,1002.64
2022-12-22T02:39:20.969Z,1002.65
2022-12-22T02:40:20.955Z,1002.68
2022-12-22T02:41:20.950Z,1002.70
2022-12-22T02:42:20.939Z,1002.68
2022-12-22T02:43:20.951Z,1002.67
2022-12-22T02:44:20.904Z,1002.70
2022-12-22T02:45:20.919Z,1002.71
2022-12-22T02:46:20.939Z,1002.74
2022-12-22T02:47:20.881Z,1002.72
2022-12-22T02:48:20.875Z,1002.77
2022-12-22T02:49:20.859Z,1002.69
2022-12-22T02:50:20.848Z,1002.70
2022-12-22T02:51:20.840Z,1002.70
2022-12-22T02:52:20.844Z,1002.68
2022-12-22T02:53:20.816Z,1002.66
2022-12-22T02:54:20.808Z,1002.66
2022-12-22T02:55:20.789Z,1002.65
2022-12-22T02:56:20.777Z,1002.64
2022-12-22T02:57:20.771Z,1002.67
2022-12-22T02:58:20.789Z,1002.68
2022-12-22T02:59:20.781Z,1002.63
2022-12-22T03:00:20.756Z,1002.61
2022-12-22T03:01:20.748Z,1002.57
2022-12-22T03:02:20.923Z,1002.57
2022-12-22T03:03:20.899Z,1002.64
2022-12-22T03:04:20.739Z,1002.53
2022-12-22T03:05:20.690Z,1002.60
2022-12-22T03:06:20.684Z,1002.57
2022-12-22T03:07:20.668Z,1002.52
2022-12-22T03:08:20.652Z,1002.53
2022-12-22T03:09:20.645Z,1002.51
2022-12-22T03:10:20.648Z,1002.49
2022-12-22T03:11:20.615Z,1002.50
2022-12-22T03:12:20.605Z,1002.47
2022-12-22T03:13:20.606Z,1002.51
2022-12-22T03:14:20.589Z,1002.48
2022-12-22T03:15:20.606Z,1002.45
2022-12-22T03:16:20.662Z,1002.43
2022-12-22T03:17:20.561Z,1002.49
2022-12-22T03:18:20.580Z,1002.46
2022-12-22T03:19:20.533Z,1002.43
2022-12-22T03:20:20.521Z,1002.35
2022-12-22T03:21:20.518Z,1002.39
2022-12-22T03:22:20.503Z,1002.37
2022-12-22T03:23:20.503Z,1002.35
2022-12-22T03:24:20.480Z,1002.38
2022-12-22T03:25:20.478Z,1002.31
2022-12-22T03:26:20.463Z,1002.31
2022-12-22T03:27:20.461Z,1002.23
2022-12-22T03:28:20.458Z,1002.20
2022-12-22T03:29:20.444Z,1002.26
2022-12-22T03:30:20.411Z,1002.20
2022-12-22T03:31:20.553Z,1002.27
2022-12-22T03:32:20.391Z,1002.25
2022-12-22T03:33:20.383Z,1002.18
2022-12-22T03:34:20.377Z,1002.16
2022-12-22T03:35:20.398Z,1002.19
2022-12-22T03:36:20.355Z,1002.18
2022-12-22T03:37:20.344Z,1002.14
2022-12-22T03:38:20.343Z,1002.16
2022-12-22T03:39:20.322Z,1002.10
2022-12-22T03:40:20.312Z,1002.09
2022-12-22T03:41:20.339Z,1002.06
2022-12-22T03:42:20.289Z,1002.07
2022-12-22T03:43:20.281Z,1002.02
2022-12-22T03:44:20.272Z,1002.03
2022-12-22T03:45:20.253Z,1001.93
2022-12-22T03:46:20.259Z,1002.04
2022-12-22T03:47:20.275Z,1001.97
2022-12-22T03:48:20.218Z,1002.00
2022-12-22T03:49:20.215Z,1001.95
2022-12-22T03:50:20.203Z,1001.95
2022-12-22T03:51:20.192Z,1001.98
2022-12-22T03:52:20.192Z,1001.96
2022-12-22T03:53:20.182Z,1001.98
2022-12-22T03:54:20.162Z,1001.92
2022-12-22T03:55:20.141Z,1001.92
2022-12-22T03:56:20.132Z,1001.89
2022-12-22T03:57:20.143Z,1001.81
2022-12-22T03:58:20.126Z,1001.87
2022-12-22T03:59:20.112Z,1001.70
2022-12-22T04:00:20.112Z,1001.74
2022-12-22T04:01:20.114Z,1001.69
2022-12-22T04:02:20.180Z,1001.63
2022-12-22T04:03:20.188Z,1001.62
2022-12-22T04:04:20.057Z,1001.62
2022-12-22T04:05:20.053Z,1001.62
2022-12-22T04:06:20.059Z,1001.61
2022-12-22T04:07:20.021Z,1001.60
2022-12-22T04:08:20.003Z,1001.57
2022-12-22T04:09:20.015Z,1001.58
2022-12-22T04:10:20.000Z,1001.56
2022-12-22T04:11:19.970Z,1001.55
2022-12-22T04:12:19.986Z,1001.57
2022-12-22T04:13:19.963Z,1001.54
2022-12-22T04:14:19.962Z,1001.56
2022-12-22T04:15:19.940Z,1001.60
2022-12-22T04:16:20.005Z,1001.53
2022-12-22T04:17:19.916Z,1001.54
2022-12-22T04:18:19.916Z,1001.52
2022-12-22T04:19:19.912Z,1001.48
2022-12-22T04:20:19.888Z,1001.48
2022-12-22T04:21:19.883Z,1001.50
2022-12-22T04:22:19.864Z,1001.52
2022-12-22T04:23:19.843Z,1001.45
2022-12-22T04:24:19.851Z,1001.50
2022-12-22T04:25:19.820Z,1001.51
2022-12-22T04:26:19.827Z,1001.53
2022-12-22T04:27:19.817Z,1001.48
2022-12-22T04:28:19.907Z,1001.53
2022-12-22T04:29:19.791Z,1001.46
2022-12-22T04:30:19.778Z,1001.44
2022-12-22T04:31:19.818Z,1001.44
2022-12-22T04:32:19.838Z,1001.35
2022-12-22T04:33:19.741Z,1001.42
2022-12-22T04:34:19.731Z,1001.43
2022-12-22T04:35:19.732Z,1001.40
2022-12-22T04:36:19.706Z,1001.37
2022-12-22T04:37:19.714Z,1001.38
2022-12-22T04:38:19.685Z,1001.39
2022-12-22T04:39:19.672Z,1001.37
2022-12-22T04:40:19.659Z,1001.39
2022-12-22T04:41:19.654Z,1001.42
2022-12-22T04:42:19.659Z,1001.39
2022-12-22T04:43:19.636Z,1001.42
2022-12-22T04:44:19.652Z,1001.37
2022-12-22T04:45:19.614Z,1001.38
2022-12-22T04:46:19.661Z,1001.36
2022-12-22T04:47:19.598Z,1001.34
2022-12-22T04:48:19.573Z,1001.32
2022-12-22T04:49:19.571Z,1001.32
2022-12-22T04:50:19.573Z,1001.35
2022-12-22T04:51:19.570Z,1001.30
2022-12-22T04:52:19.552Z,1001.30
2022-12-22T04:53:19.551Z,1001.33
2022-12-22T04:54:19.511Z,1001.25
2022-12-22T04:55:19.506Z,1001.22
2022-12-22T04:56:19.533Z,1001.23
2022-12-22T04:57:19.479Z,1001.23
2022-12-22T04:58:19.488Z,1001.19
2022-12-22T04:59:19.480Z,1001.19
2022-12-22T05:00:19.447Z,1001.14
2022-12-22T05:01:19.548Z,1001.13
2022-12-22T05:02:19.567Z,1001.14
2022-12-22T05:03:19.515Z,1001.08
2022-12-22T05:04:23.691Z,1001.10
2022-12-22T05:05:19.426Z,1001.09
2022-12-22T05:06:19.398Z,1001.07
2022-12-22T05:07:19.405Z,1001.06
2022-12-22T05:08:19.363Z,1000.97
2022-12-22T05:09:19.351Z,1000.94
2022-12-22T05:10:19.339Z,1001.00
2022-12-22T05:11:19.342Z,1000.96
2022-12-22T05:12:19.324Z,1000.93
2022-12-22T05:13:19.314Z,1000.93
2022-12-22T05:14:19.301Z,1000.87
2022-12-22T05:15:19.284Z,1000.92
2022-12-22T05:16:19.347Z,1000.89
2022-12-22T05:17:19.277Z,1000.85
2022-12-22T05:18:19.253Z,1000.86
2022-12-22T05:19:19.244Z,1000.84
2022-12-22T05:20:19.235Z,1000.88
2022-12-22T05:21:19.220Z,1000.83
2022-12-22T05:22:19.219Z,1000.87
2022-12-22T05:23:19.248Z,1000.85
2022-12-22T05:24:19.194Z,1000.78
2022-12-22T05:25:19.181Z,1000.70
2022-12-22T05:26:19.169Z,1000.76
2022-12-22T05:27:19.167Z,1000.72
2022-12-22T05:28:19.152Z,1000.71
2022-12-22T05:29:19.148Z,1000.73
2022-12-22T05:30:19.155Z,1000.74
2022-12-22T05:31:19.251Z,1000.71
2022-12-22T05:32:19.114Z,1000.73
2022-12-22T05:33:19.096Z,1000.72
2022-12-22T05:34:19.091Z,1000.73
2022-12-22T05:35:19.067Z,1000.65
2022-12-22T05:36:19.073Z,1000.67
2022-12-22T05:37:19.052Z,1000.66
2022-12-22T05:38:19.046Z,1000.64
2022-12-22T05:39:19.065Z,1000.60
2022-12-22T05:40:19.022Z,1000.63
2022-12-22T05:41:19.010Z,1000.58
2022-12-22T05:42:19.000Z,1000.52
2022-12-22T05:43:18.994Z,1000.48
2022-12-22T05:44:18.970Z,1000.48
2022-12-22T05:45:18.980Z,1000.47
2022-12-22T05:46:19.052Z,1000.49
2022-12-22T05:47:18.952Z,1000.45
2022-12-22T05:48:26.185Z,1000.44
2022-12-22T05:49:19.914Z,1000.44
2022-12-22T05:50:18.953Z,1000.40
2022-12-22T05:51:18.902Z,1000.42
2022-12-22T05:52:18.897Z,1000.42
2022-12-22T05:53:18.880Z,1000.42
2022-12-22T05:54:18.873Z,1000.43
2022-12-22T05:55:18.874Z,1000.45
2022-12-22T05:56:18.858Z,1000.40
2022-12-22T05:57:18.840Z,1000.43
2022-12-22T05:58:18.825Z,1000.45
2022-12-22T05:59:18.817Z,1000.46
2022-12-22T06:00:18.806Z,1000.49
2022-12-22T06:01:18.797Z,1000.44
2022-12-22T06:02:19.078Z,1000.39
2022-12-22T06:03:18.887Z,1000.35
2022-12-22T06:04:18.959Z,1000.32
2022-12-22T06:05:18.748Z,1000.34
2022-12-22T06:06:18.752Z,1000.36
2022-12-22T06:07:18.730Z,1000.32
2022-12-22T06:08:18.754Z,1000.30
2022-12-22T06:09:18.708Z,1000.29
2022-12-22T06:10:18.707Z,1000.26
2022-12-22T06:11:18.703Z,1000.22
2022-12-22T06:12:18.673Z,1000.20
2022-12-22T06:13:18.665Z,1000.22
2022-12-22T06:14:18.673Z,1000.25
2022-12-22T06:15:18.640Z,1000.23
2022-12-22T06:16:18.735Z,1000.20
2022-12-22T06:17:18.618Z,1000.20
2022-12-22T06:18:18.618Z,1000.20
2022-12-22T06:19:18.596Z,1000.22
2022-12-22T06:20:18.603Z,1000.19
2022-12-22T06:21:18.572Z,1000.13
2022-12-22T06:22:18.576Z,1000.19
2022-12-22T06:23:18.557Z,1000.07
2022-12-22T06:24:18.542Z,1000.12
2022-12-22T06:25:19.156Z,1000.10
2022-12-22T06:26:18.534Z,1000.10
2022-12-22T06:27:18.539Z,1000.05
2022-12-22T06:28:18.503Z,1000.10
2022-12-22T06:29:18.492Z,1000.15
2022-12-22T06:30:18.530Z,1000.13
2022-12-22T06:31:18.538Z,1000.23
2022-12-22T06:32:18.502Z,1000.13
2022-12-22T06:33:18.471Z,1000.04
2022-12-22T06:34:18.442Z,1000.07
2022-12-22T06:35:18.453Z,1000.09
2022-12-22T06:36:18.440Z,1000.08
2022-12-22T06:37:18.409Z,999.97
2022-12-22T06:38:18.396Z,1000.05
2022-12-22T06:39:18.389Z,1000.09
2022-12-22T06:40:18.370Z,1000.06
2022-12-22T06:41:18.358Z,1000.04
2022-12-22T06:42:18.372Z,999.99
2022-12-22T06:43:18.358Z,1000.01
2022-12-22T06:44:18.360Z,1000.03
2022-12-22T06:45:18.323Z,1000.01
2022-12-22T06:46:18.372Z,999.99
2022-12-22T06:47:18.312Z,999.98
2022-12-22T06:48:18.289Z,999.99
2022-12-22T06:49:18.273Z,999.96
2022-12-22T06:50:18.270Z,999.97
2022-12-22T06:51:18.255Z,999.92
2022-12-22T06:52:18.244Z,999.92
2022-12-22T06:53:18.254Z,999.85
2022-12-22T06:54:22.383Z,999.85
2022-12-22T06:55:19.226Z,999.77
2022-12-22T06:56:18.213Z,999.76
2022-12-22T06:57:18.214Z,999.76
2022-12-22T06:58:18.191Z,999.79
2022-12-22T06:59:18.206Z,999.79
2022-12-22T07:00:18.165Z,999.71
2022-12-22T07:01:18.220Z,999.75
2022-12-22T07:02:18.368Z,999.72
2022-12-22T07:03:18.295Z,999.79
2022-12-22T07:04:18.117Z,999.77
2022-12-22T07:05:18.098Z,999.89
2022-12-22T07:06:18.090Z,999.85
2022-12-22T07:07:18.089Z,999.91
2022-12-22T07:08:18.091Z,999.94
2022-12-22T07:09:18.107Z,999.85
2022-12-22T07:10:18.049Z,999.86
2022-12-22T07:11:18.056Z,999.86
2022-12-22T07:12:18.033Z,999.85
2022-12-22T07:13:18.023Z,999.90
2022-12-22T07:14:18.011Z,999.82
2022-12-22T07:15:18.025Z,999.85
2022-12-22T07:16:18.083Z,999.86
2022-12-22T07:17:17.977Z,999.86
2022-12-22T07:18:17.971Z,999.78
2022-12-22T07:19:17.958Z,999.80
2022-12-22T07:20:17.951Z,999.79
2022-12-22T07:21:17.969Z,999.83
2022-12-22T07:22:17.921Z,999.79
2022-12-22T07:23:17.929Z,999.80
2022-12-22T07:24:17.912Z,999.75
2022-12-22T07:25:17.894Z,999.82
2022-12-22T07:26:17.885Z,999.81
2022-12-22T07:27:17.877Z,999.78
2022-12-22T07:28:20.911Z,999.78
2022-12-22T07:29:17.853Z,999.75
2022-12-22T07:30:17.838Z,999.76
2022-12-22T07:31:17.941Z,999.81
2022-12-22T07:32:17.808Z,999.77
2022-12-22T07:33:17.805Z,999.76
2022-12-22T07:34:17.792Z,999.74
2022-12-22T07:35:17.810Z,999.73
2022-12-22T07:36:17.781Z,999.71
2022-12-22T07:37:17.762Z,999.69
2022-12-22T07:38:17.754Z,999.70
2022-12-22T07:39:17.738Z,999.58
2022-12-22T07:40:17.723Z,999.62
2022-12-22T07:41:17.724Z,999.59
2022-12-22T07:42:17.713Z,999.60
2022-12-22T07:43:17.704Z,999.57
2022-12-22T07:44:17.683Z,999.58
2022-12-22T07:45:17.669Z,999.56
2022-12-22T07:46:17.706Z,999.53
2022-12-22T07:47:17.683Z,999.58
2022-12-22T07:48:17.649Z,999.50
2022-12-22T07:49:17.648Z,999.53
2022-12-22T07:50:17.624Z,999.51
2022-12-22T07:51:17.607Z,999.54
2022-12-22T07:52:17.593Z,999.53
2022-12-22T07:53:17.589Z,999.52
2022-12-22T07:54:17.586Z,999.48
2022-12-22T07:55:17.582Z,999.50
2022-12-22T07:56:17.553Z,999.48
2022-12-22T07:57:17.561Z,999.43
2022-12-22T07:58:17.531Z,999.38
2022-12-22T07:59:17.530Z,999.38
2022-12-22T08:00:17.518Z,999.41
2022-12-22T08:01:17.509Z,999.40
2022-12-22T08:02:17.694Z,999.42
2022-12-22T08:03:17.717Z,999.37
2022-12-22T08:04:17.545Z,999.42
2022-12-22T08:05:17.535Z,999.34
2022-12-22T08:06:17.450Z,999.38
2022-12-22T08:07:17.434Z,999.36
2022-12-22T08:08:17.433Z,999.37
2022-12-22T08:09:17.423Z,999.32
2022-12-22T08:10:17.408Z,999.37
2022-12-22T08:11:17.404Z,999.32
2022-12-22T08:12:17.377Z,999.33
2022-12-22T08:13:17.451Z,999.39
2022-12-22T08:14:17.355Z,999.32
2022-12-22T08:15:17.361Z,999.36
2022-12-22T08:16:17.417Z,999.38
2022-12-22T08:17:17.330Z,999.37
2022-12-22T08:18:17.327Z,999.30
2022-12-22T08:19:17.328Z,999.36
2022-12-22T08:20:17.305Z,999.34
2022-12-22T08:21:17.281Z,999.36
2022-12-22T08:22:17.284Z,999.34
2022-12-22T08:23:17.268Z,999.20
2022-12-22T08:24:17.295Z,999.26
2022-12-22T08:25:17.254Z,999.24
2022-12-22T08:26:17.239Z,999.21
2022-12-22T08:27:23.912Z,999.24
2022-12-22T08:28:18.212Z,999.18
2022-12-22T08:29:17.200Z,999.17
2022-12-22T08:30:17.202Z,999.22
2022-12-22T08:31:17.236Z,999.20
2022-12-22T08:32:17.174Z,999.16
2022-12-22T08:33:17.169Z,999.15
2022-12-22T08:34:17.141Z,999.12
2022-12-22T08:35:17.167Z,999.18
2022-12-22T08:36:17.128Z,999.14
2022-12-22T08:37:17.127Z,999.05
2022-12-22T08:38:17.100Z,999.07
2022-12-22T08:39:17.111Z,999.09
2022-12-22T08:40:17.114Z,999.10
2022-12-22T08:41:17.083Z,999.07
2022-12-22T08:42:17.055Z,999.10
2022-12-22T08:43:17.057Z,999.03
2022-12-22T08:44:17.050Z,999.07
2022-12-22T08:45:17.052Z,999.04
2022-12-22T08:46:17.116Z,999.03
2022-12-22T08:47:17.516Z,999.02
2022-12-22T08:48:17.014Z,999.00
2022-12-22T08:49:16.991Z,998.96
2022-12-22T08:50:16.988Z,999.03
2022-12-22T08:51:16.995Z,998.99
2022-12-22T08:52:18.626Z,998.99
2022-12-22T08:53:37.659Z,998.97
2022-12-22T08:54:17.943Z,998.94
2022-12-22T08:55:16.924Z,998.93
2022-12-22T08:56:16.920Z,999.00
2022-12-22T08:57:16.917Z,999.05
2022-12-22T08:58:16.896Z,999.04
2022-12-22T08:59:16.888Z,999.00
2022-12-22T09:00:16.900Z,998.98
2022-12-22T09:01:16.977Z,998.98
2022-12-22T09:02:17.072Z,998.97
2022-12-22T09:03:16.888Z,998.92
2022-12-22T09:04:16.845Z,998.95
2022-12-22T09:05:16.822Z,998.92
2022-12-22T09:06:16.805Z,998.90
2022-12-22T09:07:16.829Z,998.90
2022-12-22T09:08:16.778Z,998.87
2022-12-22T09:09:16.788Z,998.86
2022-12-22T09:10:16.763Z,998.90
2022-12-22T09:11:16.747Z,998.83
2022-12-22T09:12:16.740Z,998.85
2022-12-22T09:13:16.728Z,998.88
2022-12-22T09:14:16.732Z,998.85
2022-12-22T09:15:16.711Z,998.89
2022-12-22T09:16:16.729Z,998.86
2022-12-22T09:17:16.691Z,998.83
2022-12-22T09:18:16.706Z,998.80
2022-12-22T09:19:16.677Z,998.78
2022-12-22T09:20:16.648Z,998.79
2022-12-22T09:21:16.644Z,998.77
2022-12-22T09:22:20.344Z,998.76
2022-12-22T09:23:17.646Z,998.73
2022-12-22T09:24:16.640Z,998.78
2022-12-22T09:25:16.605Z,998.78
2022-12-22T09:26:16.599Z,998.76
2022-12-22T09:27:16.580Z,998.80
2022-12-22T09:28:16.568Z,998.72
2022-12-22T09:29:16.560Z,998.74
2022-12-22T09:30:16.554Z,998.74
2022-12-22T09:31:16.599Z,998.66
2022-12-22T09:32:16.579Z,998.66
2022-12-22T09:33:16.522Z,998.62
2022-12-22T09:34:18.432Z,998.62
2022-12-22T09:35:16.491Z,998.62
2022-12-22T09:36:16.489Z,998.66
2022-12-22T09:37:16.484Z,998.63
2022-12-22T09:38:16.461Z,998.60
2022-12-22T09:39:16.469Z,998.62
2022-12-22T09:40:16.451Z,998.57
2022-12-22T09:41:16.430Z,998.59
2022-12-22T09:42:16.451Z,998.63
2022-12-22T09:43:16.422Z,998.62
2022-12-22T09:44:16.451Z,998.60
2022-12-22T09:45:17.393Z,998.52
2022-12-22T09:46:16.521Z,998.53
2022-12-22T09:47:16.363Z,998.55
2022-12-22T09:48:16.381Z,998.53
2022-12-22T09:49:16.353Z,998.52
2022-12-22T09:50:16.341Z,998.55
2022-12-22T09:51:21.038Z,998.52
2022-12-22T09:52:17.316Z,998.54
2022-12-22T09:53:16.311Z,998.57
2022-12-22T09:54:16.323Z,998.52
2022-12-22T09:55:16.308Z,998.53
2022-12-22T09:56:16.266Z,998.57
2022-12-22T09:57:16.253Z,998.53
2022-12-22T09:58:20.694Z,998.55
2022-12-22T09:59:17.239Z,998.49
2022-12-22T10:00:16.268Z,998.53
2022-12-22T10:01:16.340Z,998.49
2022-12-22T10:02:16.309Z,998.48
2022-12-22T10:03:16.239Z,998.50
2022-12-22T10:04:16.180Z,998.48
2022-12-22T10:05:16.181Z,998.46
2022-12-22T10:06:16.160Z,998.44
2022-12-22T10:07:16.159Z,998.44
2022-12-22T10:08:16.147Z,998.40
2022-12-22T10:09:46.224Z,998.41
2022-12-22T10:10:17.124Z,998.39
2022-12-22T10:11:16.138Z,998.36
2022-12-22T10:12:16.130Z,998.36
2022-12-22T10:13:16.100Z,998.36
2022-12-22T10:14:16.075Z,998.37
2022-12-22T10:15:21.668Z,998.33
2022-12-22T10:16:17.113Z,998.33
2022-12-22T10:17:16.048Z,998.34
2022-12-22T10:18:16.048Z,998.32
2022-12-22T10:19:16.052Z,998.34
2022-12-22T10:20:16.020Z,998.33
2022-12-22T10:21:16.031Z,998.36
2022-12-22T10:22:15.997Z,998.39
2022-12-22T10:23:16.002Z,998.37
2022-12-22T10:24:15.993Z,998.35
2022-12-22T10:25:15.978Z,998.31
2022-12-22T10:26:27.931Z,998.33
2022-12-22T10:27:16.964Z,998.37
2022-12-22T10:28:15.933Z,998.33
2022-12-22T10:29:15.927Z,998.33
2022-12-22T10:30:15.906Z,998.31
2022-12-22T10:31:15.908Z,998.25
2022-12-22T10:32:15.960Z,998.31
2022-12-22T10:33:15.884Z,998.26
2022-12-22T10:34:15.879Z,998.26
2022-12-22T10:35:15.863Z,998.21
2022-12-22T10:36:15.873Z,998.20
2022-12-22T10:37:15.835Z,998.22
2022-12-22T10:38:21.538Z,998.21
2022-12-22T10:39:16.815Z,998.24
2022-12-22T10:40:15.807Z,998.22
2022-12-22T10:41:15.788Z,998.19
2022-12-22T10:42:15.789Z,998.18
2022-12-22T10:43:15.788Z,998.13
2022-12-22T10:44:15.765Z,998.18
2022-12-22T10:45:15.761Z,998.16
2022-12-22T10:46:15.798Z,998.13
2022-12-22T10:47:20.767Z,998.16
2022-12-22T10:48:16.719Z,998.16
2022-12-22T10:49:15.699Z,998.20
2022-12-22T10:50:15.849Z,998.22
2022-12-22T10:51:15.698Z,998.14
2022-12-22T10:52:15.697Z,998.14
2022-12-22T10:53:15.681Z,998.18
2022-12-22T10:54:15.651Z,998.19
2022-12-22T10:55:15.650Z,998.21
2022-12-22T10:56:15.629Z,998.14
2022-12-22T10:57:15.636Z,998.15
2022-12-22T10:58:15.605Z,998.13
2022-12-22T10:59:15.664Z,998.18
2022-12-22T11:00:15.643Z,998.13
2022-12-22T11:01:15.673Z,998.12
2022-12-22T11:02:15.796Z,998.09
2022-12-22T11:03:20.779Z,998.05
2022-12-22T11:04:16.557Z,998.09
2022-12-22T11:05:15.542Z,998.10
2022-12-22T11:06:15.540Z,998.01
2022-12-22T11:07:15.534Z,997.99
2022-12-22T11:08:15.528Z,998.00
2022-12-22T11:09:33.329Z,998.03
2022-12-22T11:10:16.510Z,997.99
2022-12-22T11:11:15.479Z,997.97
2022-12-22T11:12:15.461Z,997.95
2022-12-22T11:13:15.463Z,997.90
2022-12-22T11:14:15.464Z,997.88
2022-12-22T11:15:20.300Z,997.88
2022-12-22T11:16:16.475Z,997.92
2022-12-22T11:17:15.434Z,997.91
2022-12-22T11:18:15.405Z,997.84
2022-12-22T11:19:15.387Z,997.90
2022-12-22T11:20:15.408Z,997.90
2022-12-22T11:21:20.358Z,997.81
2022-12-22T11:22:16.351Z,997.85
2022-12-22T11:23:15.349Z,997.87
2022-12-22T11:24:15.343Z,997.84
2022-12-22T11:25:15.353Z,997.78
2022-12-22T11:26:15.335Z,997.76
2022-12-22T11:27:15.302Z,997.82
2022-12-22T11:28:15.290Z,997.82
2022-12-22T11:29:15.273Z,997.79
2022-12-22T11:30:15.366Z,997.85
2022-12-22T11:31:15.354Z,997.80
2022-12-22T11:32:15.259Z,997.82
2022-12-22T11:33:15.239Z,997.84
2022-12-22T11:34:20.805Z,997.85
2022-12-22T11:35:16.227Z,997.80
2022-12-22T11:36:15.202Z,997.85
2022-12-22T11:37:15.188Z,997.84
2022-12-22T11:38:15.183Z,997.81
2022-12-22T11:39:15.178Z,997.81
2022-12-22T11:40:15.167Z,997.80
2022-12-22T11:41:15.145Z,997.76
2022-12-22T11:42:15.129Z,997.78
2022-12-22T11:43:15.120Z,997.71
2022-12-22T11:44:15.116Z,997.74
2022-12-22T11:45:15.115Z,997.70
2022-12-22T11:46:15.193Z,997.72
2022-12-22T11:47:15.145Z,997.69
2022-12-22T11:48:15.073Z,997.68
2022-12-22T11:49:15.090Z,997.76
2022-12-22T11:51:02.725Z,997.68
2022-12-22T11:51:16.561Z,997.63
2022-12-22T11:52:15.030Z,997.70
2022-12-22T11:53:15.035Z,997.66
2022-12-22T11:54:15.018Z,997.68
2022-12-22T11:55:15.025Z,997.67
2022-12-22T11:56:14.995Z,997.65
2022-12-22T11:57:14.979Z,997.66
2022-12-22T11:58:14.988Z,997.62
2022-12-22T11:59:14.972Z,997.61
2022-12-22T12:00:14.938Z,997.58
2022-12-22T12:01:20.434Z,997.57
2022-12-22T12:02:16.057Z,997.61
2022-12-22T12:03:15.028Z,997.59
2022-12-22T12:04:14.942Z,997.61
2022-12-22T12:05:14.922Z,997.66
2022-12-22T12:06:14.874Z,997.64
2022-12-22T12:07:14.863Z,997.63
2022-12-22T12:08:14.861Z,997.63
2022-12-22T12:09:14.858Z,997.61
2022-12-22T12:10:14.869Z,997.61
2022-12-22T12:11:14.825Z,997.63
2022-12-22T12:12:14.822Z,997.65
2022-12-22T12:13:19.407Z,997.67
2022-12-22T12:14:15.799Z,997.58
2022-12-22T12:15:14.791Z,997.60